sensor_id;sensor_type;location;lat;lon;timestamp;P1;durP1;ratioP1;P2;durP2;ratioP2
21593;SDS011;10959;51.328;7.322;2023-01-05T00:00:05;18.30;;;4.73;;
21593;SDS011;10959;51.328;7.322;2023-01-05T00:02:32;14.13;;;4.13;;
21593;SDS011;10959;51.328;7.322;2023-01-05T00:04:59;15.17;;;4.47;;
21593;SDS011;10959;51.328;7.322;2023-01-05T00:07:26;15.03;;;4.57;;
21593;SDS011;10959;51.328;7.322;2023-01-05T00:09:52;19.30;;;3.73;;
21593;SDS011;10959;51.328;7.322;2023-01-05T00:12:20;14.27;;;3.77;;
21593;SDS011;10959;51.328;7.322;2023-01-05T00:15:04;15.57;;;4.20;;
21593;SDS011;10959;51.328;7.322;2023-01-05T00:17:49;15.93;;;4.77;;
21593;SDS011;10959;51.328;7.322;2023-01-05T00:20:41;18.87;;;4.17;;
21593;SDS011;10959;51.328;7.322;2023-01-05T00:23:26;14.83;;;4.20;;
21593;SDS011;10959;51.328;7.322;2023-01-05T00:25:52;14.73;;;4.17;;
21593;SDS011;10959;51.328;7.322;2023-01-05T00:28:20;12.60;;;4.17;;
21593;SDS011;10959;51.328;7.322;2023-01-05T00:30:46;15.73;;;3.60;;
21593;SDS011;10959;51.328;7.322;2023-01-05T00:33:13;14.23;;;4.00;;
21593;SDS011;10959;51.328;7.322;2023-01-05T00:35:41;16.47;;;4.10;;
21593;SDS011;10959;51.328;7.322;2023-01-05T00:38:08;14.83;;;3.17;;
21593;SDS011;10959;51.328;7.322;2023-01-05T00:40:34;19.00;;;4.70;;
21593;SDS011;10959;51.328;7.322;2023-01-05T00:43:02;12.40;;;3.97;;
21593;SDS011;10959;51.328;7.322;2023-01-05T00:45:30;13.67;;;3.53;;
21593;SDS011;10959;51.328;7.322;2023-01-05T00:47:56;14.10;;;4.30;;
21593;SDS011;10959;51.328;7.322;2023-01-05T00:50:24;15.57;;;4.80;;
21593;SDS011;10959;51.328;7.322;2023-01-05T00:52:51;19.43;;;4.50;;
21593;SDS011;10959;51.328;7.322;2023-01-05T00:55:17;16.43;;;4.60;;
21593;SDS011;10959;51.328;7.322;2023-01-05T00:57:44;11.27;;;3.20;;
21593;SDS011;10959;51.328;7.322;2023-01-05T01:00:12;12.63;;;3.97;;
21593;SDS011;10959;51.328;7.322;2023-01-05T01:02:42;19.93;;;4.00;;
21593;SDS011;10959;51.328;7.322;2023-01-05T01:05:09;12.77;;;4.13;;
21593;SDS011;10959;51.328;7.322;2023-01-05T01:07:35;12.27;;;3.97;;
21593;SDS011;10959;51.328;7.322;2023-01-05T01:10:02;22.17;;;4.77;;
21593;SDS011;10959;51.328;7.322;2023-01-05T01:12:29;13.70;;;4.67;;
21593;SDS011;10959;51.328;7.322;2023-01-05T01:14:55;18.67;;;4.80;;
21593;SDS011;10959;51.328;7.322;2023-01-05T01:17:22;19.83;;;4.37;;
21593;SDS011;10959;51.328;7.322;2023-01-05T01:19:49;16.13;;;4.67;;
21593;SDS011;10959;51.328;7.322;2023-01-05T01:22:16;17.33;;;4.67;;
21593;SDS011;10959;51.328;7.322;2023-01-05T01:24:42;14.70;;;4.37;;
21593;SDS011;10959;51.328;7.322;2023-01-05T01:27:09;12.03;;;3.97;;
21593;SDS011;10959;51.328;7.322;2023-01-05T01:29:35;15.70;;;4.87;;
21593;SDS011;10959;51.328;7.322;2023-01-05T01:32:02;10.83;;;3.80;;
21593;SDS011;10959;51.328;7.322;2023-01-05T01:34:28;13.97;;;4.77;;
21593;SDS011;10959;51.328;7.322;2023-01-05T01:36:56;16.70;;;4.77;;
21593;SDS011;10959;51.328;7.322;2023-01-05T01:39:24;17.43;;;4.57;;
21593;SDS011;10959;51.328;7.322;2023-01-05T01:41:50;15.60;;;4.83;;
21593;SDS011;10959;51.328;7.322;2023-01-05T01:47:23;20.03;;;4.47;;
21593;SDS011;10959;51.328;7.322;2023-01-05T01:49:55;15.93;;;4.90;;
21593;SDS011;10959;51.328;7.322;2023-01-05T01:52:26;18.10;;;4.10;;
21593;SDS011;10959;51.328;7.322;2023-01-05T01:54:55;18.77;;;5.07;;
21593;SDS011;10959;51.328;7.322;2023-01-05T01:57:22;17.67;;;4.47;;
21593;SDS011;10959;51.328;7.322;2023-01-05T01:59:51;21.30;;;5.23;;
21593;SDS011;10959;51.328;7.322;2023-01-05T02:02:18;13.87;;;4.70;;
21593;SDS011;10959;51.328;7.322;2023-01-05T02:04:47;21.80;;;5.07;;
21593;SDS011;10959;51.328;7.322;2023-01-05T02:07:16;14.27;;;4.93;;
21593;SDS011;10959;51.328;7.322;2023-01-05T02:09:43;24.83;;;5.90;;
21593;SDS011;10959;51.328;7.322;2023-01-05T02:12:15;16.67;;;5.57;;
21593;SDS011;10959;51.328;7.322;2023-01-05T02:14:48;23.00;;;5.17;;
21593;SDS011;10959;51.328;7.322;2023-01-05T02:17:27;16.53;;;4.73;;
21593;SDS011;10959;51.328;7.322;2023-01-05T02:22:58;15.57;;;4.87;;
21593;SDS011;10959;51.328;7.322;2023-01-05T02:26:03;17.73;;;5.20;;
21593;SDS011;10959;51.328;7.322;2023-01-05T02:28:51;13.83;;;4.60;;
21593;SDS011;10959;51.328;7.322;2023-01-05T02:31:38;18.93;;;5.20;;
21593;SDS011;10959;51.328;7.322;2023-01-05T02:34:12;13.83;;;4.13;;
21593;SDS011;10959;51.328;7.322;2023-01-05T02:36:46;19.60;;;5.37;;
21593;SDS011;10959;51.328;7.322;2023-01-05T02:39:18;17.10;;;4.77;;
21593;SDS011;10959;51.328;7.322;2023-01-05T02:41:51;19.20;;;5.13;;
21593;SDS011;10959;51.328;7.322;2023-01-05T02:44:22;16.23;;;4.97;;
21593;SDS011;10959;51.328;7.322;2023-01-05T02:47:00;18.93;;;4.90;;
21593;SDS011;10959;51.328;7.322;2023-01-05T02:49:27;15.50;;;5.03;;
21593;SDS011;10959;51.328;7.322;2023-01-05T02:51:56;13.40;;;4.77;;
21593;SDS011;10959;51.328;7.322;2023-01-05T02:54:26;19.10;;;5.03;;
21593;SDS011;10959;51.328;7.322;2023-01-05T02:56:57;16.47;;;4.67;;
21593;SDS011;10959;51.328;7.322;2023-01-05T02:59:30;18.60;;;5.43;;
21593;SDS011;10959;51.328;7.322;2023-01-05T03:02:03;16.50;;;5.30;;
21593;SDS011;10959;51.328;7.322;2023-01-05T03:04:35;13.07;;;5.10;;
21593;SDS011;10959;51.328;7.322;2023-01-05T03:07:05;16.20;;;4.93;;
21593;SDS011;10959;51.328;7.322;2023-01-05T03:09:36;18.13;;;4.90;;
21593;SDS011;10959;51.328;7.322;2023-01-05T03:12:07;14.53;;;4.73;;
21593;SDS011;10959;51.328;7.322;2023-01-05T03:14:57;16.83;;;5.07;;
21593;SDS011;10959;51.328;7.322;2023-01-05T03:17:30;14.63;;;4.63;;
21593;SDS011;10959;51.328;7.322;2023-01-05T03:20:00;17.70;;;5.13;;
21593;SDS011;10959;51.328;7.322;2023-01-05T03:22:28;17.73;;;5.33;;
21593;SDS011;10959;51.328;7.322;2023-01-05T03:25:13;12.07;;;4.57;;
21593;SDS011;10959;51.328;7.322;2023-01-05T03:28:01;17.23;;;4.70;;
21593;SDS011;10959;51.328;7.322;2023-01-05T03:33:53;15.37;;;4.60;;
21593;SDS011;10959;51.328;7.322;2023-01-05T03:36:45;18.23;;;5.43;;
21593;SDS011;10959;51.328;7.322;2023-01-05T03:39:14;16.60;;;4.87;;
21593;SDS011;10959;51.328;7.322;2023-01-05T03:41:44;15.83;;;5.03;;
21593;SDS011;10959;51.328;7.322;2023-01-05T03:44:11;15.27;;;5.20;;
21593;SDS011;10959;51.328;7.322;2023-01-05T03:46:38;17.40;;;5.47;;
21593;SDS011;10959;51.328;7.322;2023-01-05T03:49:07;18.23;;;5.67;;
21593;SDS011;10959;51.328;7.322;2023-01-05T03:51:33;16.40;;;5.73;;
21593;SDS011;10959;51.328;7.322;2023-01-05T03:54:00;17.80;;;5.73;;
21593;SDS011;10959;51.328;7.322;2023-01-05T03:56:26;16.97;;;6.07;;
21593;SDS011;10959;51.328;7.322;2023-01-05T03:58:53;14.17;;;4.93;;
21593;SDS011;10959;51.328;7.322;2023-01-05T04:01:19;16.00;;;5.93;;
21593;SDS011;10959;51.328;7.322;2023-01-05T04:03:45;17.33;;;5.37;;
21593;SDS011;10959;51.328;7.322;2023-01-05T04:06:13;15.23;;;5.90;;
21593;SDS011;10959;51.328;7.322;2023-01-05T04:08:39;18.30;;;5.40;;
21593;SDS011;10959;51.328;7.322;2023-01-05T04:11:09;17.13;;;5.20;;
21593;SDS011;10959;51.328;7.322;2023-01-05T04:13:37;17.20;;;4.97;;
21593;SDS011;10959;51.328;7.322;2023-01-05T04:16:04;19.23;;;6.00;;
21593;SDS011;10959;51.328;7.322;2023-01-05T04:18:31;15.90;;;5.53;;
21593;SDS011;10959;51.328;7.322;2023-01-05T04:20:58;15.57;;;5.13;;
21593;SDS011;10959;51.328;7.322;2023-01-05T04:23:26;15.80;;;5.87;;
21593;SDS011;10959;51.328;7.322;2023-01-05T04:25:52;13.50;;;5.10;;
21593;SDS011;10959;51.328;7.322;2023-01-05T04:28:19;19.73;;;5.60;;
21593;SDS011;10959;51.328;7.322;2023-01-05T04:30:48;21.47;;;6.57;;
21593;SDS011;10959;51.328;7.322;2023-01-05T04:33:15;14.87;;;5.27;;
21593;SDS011;10959;51.328;7.322;2023-01-05T04:35:41;16.57;;;5.80;;
21593;SDS011;10959;51.328;7.322;2023-01-05T04:38:08;20.30;;;6.23;;
21593;SDS011;10959;51.328;7.322;2023-01-05T04:40:36;16.27;;;6.03;;
21593;SDS011;10959;51.328;7.322;2023-01-05T04:43:02;19.13;;;6.27;;
21593;SDS011;10959;51.328;7.322;2023-01-05T04:45:29;17.77;;;6.13;;
21593;SDS011;10959;51.328;7.322;2023-01-05T04:47:58;16.60;;;5.77;;
21593;SDS011;10959;51.328;7.322;2023-01-05T04:50:24;16.57;;;5.50;;
21593;SDS011;10959;51.328;7.322;2023-01-05T04:52:51;18.93;;;5.63;;
21593;SDS011;10959;51.328;7.322;2023-01-05T04:55:18;16.60;;;5.43;;
21593;SDS011;10959;51.328;7.322;2023-01-05T04:57:46;20.53;;;6.50;;
21593;SDS011;10959;51.328;7.322;2023-01-05T05:00:12;17.60;;;5.67;;
21593;SDS011;10959;51.328;7.322;2023-01-05T05:02:39;15.20;;;5.47;;
21593;SDS011;10959;51.328;7.322;2023-01-05T05:05:06;19.80;;;5.73;;
21593;SDS011;10959;51.328;7.322;2023-01-05T05:07:33;18.90;;;5.90;;
21593;SDS011;10959;51.328;7.322;2023-01-05T05:10:00;20.57;;;5.93;;
21593;SDS011;10959;51.328;7.322;2023-01-05T05:12:26;17.70;;;6.13;;
21593;SDS011;10959;51.328;7.322;2023-01-05T05:14:54;20.20;;;5.17;;
21593;SDS011;10959;51.328;7.322;2023-01-05T05:17:20;16.17;;;5.37;;
21593;SDS011;10959;51.328;7.322;2023-01-05T05:19:47;14.40;;;5.07;;
21593;SDS011;10959;51.328;7.322;2023-01-05T05:22:13;16.47;;;5.83;;
21593;SDS011;10959;51.328;7.322;2023-01-05T05:24:40;13.07;;;4.87;;
21593;SDS011;10959;51.328;7.322;2023-01-05T05:27:07;20.90;;;6.40;;
21593;SDS011;10959;51.328;7.322;2023-01-05T05:29:33;18.10;;;6.53;;
21593;SDS011;10959;51.328;7.322;2023-01-05T05:32:01;15.67;;;6.30;;
21593;SDS011;10959;51.328;7.322;2023-01-05T05:34:28;24.37;;;7.67;;
21593;SDS011;10959;51.328;7.322;2023-01-05T05:36:54;18.73;;;7.33;;
21593;SDS011;10959;51.328;7.322;2023-01-05T05:39:21;16.97;;;6.63;;
21593;SDS011;10959;51.328;7.322;2023-01-05T05:41:47;18.33;;;6.50;;
21593;SDS011;10959;51.328;7.322;2023-01-05T05:44:14;19.87;;;6.77;;
21593;SDS011;10959;51.328;7.322;2023-01-05T05:46:40;19.73;;;7.50;;
21593;SDS011;10959;51.328;7.322;2023-01-05T05:49:08;17.10;;;6.67;;
21593;SDS011;10959;51.328;7.322;2023-01-05T05:51:35;22.27;;;6.67;;
21593;SDS011;10959;51.328;7.322;2023-01-05T05:54:01;17.33;;;6.17;;
21593;SDS011;10959;51.328;7.322;2023-01-05T05:56:28;23.63;;;7.77;;
21593;SDS011;10959;51.328;7.322;2023-01-05T05:58:54;19.83;;;6.97;;
21593;SDS011;10959;51.328;7.322;2023-01-05T06:01:21;25.10;;;7.30;;
21593;SDS011;10959;51.328;7.322;2023-01-05T06:03:48;23.10;;;7.67;;
21593;SDS011;10959;51.328;7.322;2023-01-05T06:06:16;20.60;;;7.30;;
21593;SDS011;10959;51.328;7.322;2023-01-05T06:08:42;26.83;;;7.80;;
21593;SDS011;10959;51.328;7.322;2023-01-05T06:11:09;23.87;;;7.23;;
21593;SDS011;10959;51.328;7.322;2023-01-05T06:13:35;19.07;;;7.43;;
21593;SDS011;10959;51.328;7.322;2023-01-05T06:16:01;24.70;;;8.20;;
21593;SDS011;10959;51.328;7.322;2023-01-05T06:18:28;20.33;;;7.70;;
21593;SDS011;10959;51.328;7.322;2023-01-05T06:20:54;19.07;;;7.47;;
21593;SDS011;10959;51.328;7.322;2023-01-05T06:23:22;20.90;;;7.40;;
21593;SDS011;10959;51.328;7.322;2023-01-05T06:25:48;23.00;;;9.00;;
21593;SDS011;10959;51.328;7.322;2023-01-05T06:28:15;22.07;;;7.47;;
21593;SDS011;10959;51.328;7.322;2023-01-05T06:30:41;23.87;;;8.47;;
21593;SDS011;10959;51.328;7.322;2023-01-05T06:33:08;17.67;;;7.33;;
21593;SDS011;10959;51.328;7.322;2023-01-05T06:35:34;15.93;;;7.03;;
21593;SDS011;10959;51.328;7.322;2023-01-05T06:38:01;20.03;;;7.20;;
21593;SDS011;10959;51.328;7.322;2023-01-05T06:40:28;20.53;;;7.20;;
21593;SDS011;10959;51.328;7.322;2023-01-05T06:42:55;16.17;;;6.93;;
21593;SDS011;10959;51.328;7.322;2023-01-05T06:45:21;21.63;;;7.57;;
21593;SDS011;10959;51.328;7.322;2023-01-05T06:47:48;16.37;;;6.40;;
21593;SDS011;10959;51.328;7.322;2023-01-05T06:50:14;19.70;;;7.73;;
21593;SDS011;10959;51.328;7.322;2023-01-05T06:52:41;21.07;;;7.30;;
21593;SDS011;10959;51.328;7.322;2023-01-05T06:55:08;16.93;;;6.00;;
21593;SDS011;10959;51.328;7.322;2023-01-05T06:57:37;18.17;;;6.17;;
21593;SDS011;10959;51.328;7.322;2023-01-05T07:00:04;18.63;;;6.80;;
21593;SDS011;10959;51.328;7.322;2023-01-05T07:02:33;19.13;;;6.83;;
21593;SDS011;10959;51.328;7.322;2023-01-05T07:04:59;22.30;;;6.87;;
21593;SDS011;10959;51.328;7.322;2023-01-05T07:07:26;16.27;;;6.43;;
21593;SDS011;10959;51.328;7.322;2023-01-05T07:09:53;15.90;;;6.70;;
21593;SDS011;10959;51.328;7.322;2023-01-05T07:12:19;18.40;;;6.40;;
21593;SDS011;10959;51.328;7.322;2023-01-05T07:14:47;15.80;;;5.87;;
21593;SDS011;10959;51.328;7.322;2023-01-05T07:17:14;16.40;;;6.63;;
21593;SDS011;10959;51.328;7.322;2023-01-05T07:19:41;18.13;;;6.37;;
21593;SDS011;10959;51.328;7.322;2023-01-05T07:22:07;15.03;;;6.53;;
21593;SDS011;10959;51.328;7.322;2023-01-05T07:24:34;16.23;;;6.93;;
21593;SDS011;10959;51.328;7.322;2023-01-05T07:27:00;18.87;;;7.47;;
21593;SDS011;10959;51.328;7.322;2023-01-05T07:29:27;19.57;;;7.40;;
21593;SDS011;10959;51.328;7.322;2023-01-05T07:31:54;21.33;;;8.27;;
21593;SDS011;10959;51.328;7.322;2023-01-05T07:34:21;22.77;;;8.60;;
21593;SDS011;10959;51.328;7.322;2023-01-05T07:36:48;24.70;;;8.00;;
21593;SDS011;10959;51.328;7.322;2023-01-05T07:39:15;15.97;;;8.23;;
21593;SDS011;10959;51.328;7.322;2023-01-05T07:41:42;22.10;;;8.37;;
21593;SDS011;10959;51.328;7.322;2023-01-05T07:44:08;22.87;;;7.50;;
21593;SDS011;10959;51.328;7.322;2023-01-05T07:46:35;20.80;;;7.67;;
21593;SDS011;10959;51.328;7.322;2023-01-05T07:49:03;21.10;;;8.93;;
21593;SDS011;10959;51.328;7.322;2023-01-05T07:51:29;28.73;;;9.83;;
21593;SDS011;10959;51.328;7.322;2023-01-05T07:53:56;25.80;;;9.93;;
21593;SDS011;10959;51.328;7.322;2023-01-05T07:56:22;26.90;;;10.40;;
21593;SDS011;10959;51.328;7.322;2023-01-05T07:58:49;27.60;;;9.73;;
21593;SDS011;10959;51.328;7.322;2023-01-05T08:01:15;24.47;;;10.57;;
21593;SDS011;10959;51.328;7.322;2023-01-05T08:03:42;22.50;;;9.00;;
21593;SDS011;10959;51.328;7.322;2023-01-05T08:06:12;24.73;;;9.10;;
21593;SDS011;10959;51.328;7.322;2023-01-05T08:08:40;20.17;;;8.17;;
21593;SDS011;10959;51.328;7.322;2023-01-05T08:11:08;25.90;;;8.90;;
21593;SDS011;10959;51.328;7.322;2023-01-05T08:13:34;19.60;;;8.50;;
21593;SDS011;10959;51.328;7.322;2023-01-05T08:16:19;27.97;;;9.70;;
21593;SDS011;10959;51.328;7.322;2023-01-05T08:18:45;21.77;;;8.87;;
21593;SDS011;10959;51.328;7.322;2023-01-05T08:21:13;28.40;;;9.77;;
21593;SDS011;10959;51.328;7.322;2023-01-05T08:23:40;24.63;;;8.77;;
21593;SDS011;10959;51.328;7.322;2023-01-05T08:26:07;24.07;;;9.10;;
21593;SDS011;10959;51.328;7.322;2023-01-05T08:28:36;17.93;;;8.27;;
21593;SDS011;10959;51.328;7.322;2023-01-05T08:31:05;13.50;;;7.33;;
21593;SDS011;10959;51.328;7.322;2023-01-05T08:33:32;19.87;;;9.10;;
21593;SDS011;10959;51.328;7.322;2023-01-05T08:35:59;25.47;;;8.83;;
21593;SDS011;10959;51.328;7.322;2023-01-05T08:38:28;27.23;;;9.73;;
21593;SDS011;10959;51.328;7.322;2023-01-05T08:40:56;23.63;;;9.10;;
21593;SDS011;10959;51.328;7.322;2023-01-05T08:43:24;22.20;;;10.03;;
21593;SDS011;10959;51.328;7.322;2023-01-05T08:45:50;25.17;;;9.30;;
21593;SDS011;10959;51.328;7.322;2023-01-05T08:48:17;27.40;;;9.37;;
21593;SDS011;10959;51.328;7.322;2023-01-05T08:50:44;24.30;;;8.70;;
21593;SDS011;10959;51.328;7.322;2023-01-05T08:53:10;22.87;;;9.27;;
21593;SDS011;10959;51.328;7.322;2023-01-05T08:55:38;30.90;;;10.93;;
21593;SDS011;10959;51.328;7.322;2023-01-05T08:58:05;34.33;;;9.87;;
21593;SDS011;10959;51.328;7.322;2023-01-05T09:00:31;24.83;;;9.00;;
21593;SDS011;10959;51.328;7.322;2023-01-05T09:02:58;26.00;;;9.50;;
21593;SDS011;10959;51.328;7.322;2023-01-05T09:05:25;22.63;;;8.57;;
21593;SDS011;10959;51.328;7.322;2023-01-05T09:07:51;25.43;;;9.00;;
21593;SDS011;10959;51.328;7.322;2023-01-05T09:10:18;31.77;;;10.00;;
21593;SDS011;10959;51.328;7.322;2023-01-05T09:12:46;24.23;;;9.33;;
21593;SDS011;10959;51.328;7.322;2023-01-05T09:15:12;25.33;;;9.60;;
21593;SDS011;10959;51.328;7.322;2023-01-05T09:17:39;29.93;;;11.07;;
21593;SDS011;10959;51.328;7.322;2023-01-05T09:20:05;20.67;;;9.57;;
21593;SDS011;10959;51.328;7.322;2023-01-05T09:22:33;29.20;;;10.50;;
21593;SDS011;10959;51.328;7.322;2023-01-05T09:25:00;24.93;;;9.97;;
21593;SDS011;10959;51.328;7.322;2023-01-05T09:27:26;25.37;;;10.23;;
21593;SDS011;10959;51.328;7.322;2023-01-05T09:29:54;27.70;;;9.90;;
21593;SDS011;10959;51.328;7.322;2023-01-05T09:32:20;25.47;;;9.83;;
21593;SDS011;10959;51.328;7.322;2023-01-05T09:34:48;28.80;;;10.00;;
21593;SDS011;10959;51.328;7.322;2023-01-05T09:37:14;29.30;;;10.20;;
21593;SDS011;10959;51.328;7.322;2023-01-05T09:39:41;23.73;;;9.60;;
21593;SDS011;10959;51.328;7.322;2023-01-05T09:42:10;25.77;;;9.40;;
21593;SDS011;10959;51.328;7.322;2023-01-05T09:44:39;26.07;;;10.07;;
21593;SDS011;10959;51.328;7.322;2023-01-05T09:47:14;20.80;;;9.27;;
21593;SDS011;10959;51.328;7.322;2023-01-05T09:49:45;29.93;;;11.00;;
21593;SDS011;10959;51.328;7.322;2023-01-05T09:52:14;30.17;;;11.33;;
21593;SDS011;10959;51.328;7.322;2023-01-05T09:54:43;32.00;;;11.30;;
21593;SDS011;10959;51.328;7.322;2023-01-05T09:57:12;25.30;;;9.60;;
21593;SDS011;10959;51.328;7.322;2023-01-05T09:59:41;23.33;;;8.93;;
21593;SDS011;10959;51.328;7.322;2023-01-05T10:02:16;24.73;;;9.60;;
21593;SDS011;10959;51.328;7.322;2023-01-05T10:04:46;28.23;;;9.67;;
21593;SDS011;10959;51.328;7.322;2023-01-05T10:07:16;29.13;;;9.67;;
21593;SDS011;10959;51.328;7.322;2023-01-05T10:09:47;25.10;;;9.80;;
21593;SDS011;10959;51.328;7.322;2023-01-05T10:12:16;32.37;;;10.87;;
21593;SDS011;10959;51.328;7.322;2023-01-05T10:15:06;22.27;;;9.33;;
21593;SDS011;10959;51.328;7.322;2023-01-05T10:17:38;22.50;;;8.30;;
21593;SDS011;10959;51.328;7.322;2023-01-05T10:20:12;23.60;;;9.57;;
21593;SDS011;10959;51.328;7.322;2023-01-05T10:22:43;24.80;;;8.63;;
21593;SDS011;10959;51.328;7.322;2023-01-05T10:25:17;26.67;;;9.63;;
21593;SDS011;10959;51.328;7.322;2023-01-05T10:27:49;27.87;;;9.33;;
21593;SDS011;10959;51.328;7.322;2023-01-05T10:30:21;21.73;;;8.70;;
21593;SDS011;10959;51.328;7.322;2023-01-05T10:32:54;25.90;;;9.97;;
21593;SDS011;10959;51.328;7.322;2023-01-05T10:35:41;23.10;;;9.10;;
21593;SDS011;10959;51.328;7.322;2023-01-05T10:38:18;21.57;;;8.83;;
21593;SDS011;10959;51.328;7.322;2023-01-05T10:40:57;26.33;;;8.00;;
21593;SDS011;10959;51.328;7.322;2023-01-05T10:43:40;26.00;;;9.20;;
21593;SDS011;10959;51.328;7.322;2023-01-05T10:46:21;27.77;;;9.03;;
21593;SDS011;10959;51.328;7.322;2023-01-05T10:48:49;25.97;;;9.20;;
21593;SDS011;10959;51.328;7.322;2023-01-05T10:51:16;29.63;;;9.03;;
21593;SDS011;10959;51.328;7.322;2023-01-05T10:53:43;30.83;;;9.97;;
21593;SDS011;10959;51.328;7.322;2023-01-05T10:56:12;20.67;;;8.23;;
21593;SDS011;10959;51.328;7.322;2023-01-05T10:58:40;26.37;;;10.43;;
21593;SDS011;10959;51.328;7.322;2023-01-05T11:01:13;28.40;;;10.90;;
21593;SDS011;10959;51.328;7.322;2023-01-05T11:03:48;24.17;;;8.70;;
21593;SDS011;10959;51.328;7.322;2023-01-05T11:06:19;24.23;;;8.43;;
21593;SDS011;10959;51.328;7.322;2023-01-05T11:08:48;30.00;;;9.87;;
21593;SDS011;10959;51.328;7.322;2023-01-05T11:11:19;25.20;;;8.47;;
21593;SDS011;10959;51.328;7.322;2023-01-05T11:13:47;23.03;;;8.40;;
21593;SDS011;10959;51.328;7.322;2023-01-05T11:16:16;20.60;;;9.30;;
21593;SDS011;10959;51.328;7.322;2023-01-05T11:18:46;26.27;;;9.03;;
21593;SDS011;10959;51.328;7.322;2023-01-05T11:21:18;27.27;;;9.50;;
21593;SDS011;10959;51.328;7.322;2023-01-05T11:23:45;28.27;;;9.43;;
21593;SDS011;10959;51.328;7.322;2023-01-05T11:28:59;22.80;;;8.67;;
21593;SDS011;10959;51.328;7.322;2023-01-05T11:31:36;24.50;;;9.43;;
21593;SDS011;10959;51.328;7.322;2023-01-05T11:34:16;25.60;;;9.43;;
21593;SDS011;10959;51.328;7.322;2023-01-05T11:36:51;26.87;;;8.40;;
21593;SDS011;10959;51.328;7.322;2023-01-05T11:39:22;30.50;;;9.87;;
21593;SDS011;10959;51.328;7.322;2023-01-05T11:42:03;18.97;;;7.67;;
21593;SDS011;10959;51.328;7.322;2023-01-05T11:44:32;27.60;;;9.13;;
21593;SDS011;10959;51.328;7.322;2023-01-05T11:46:59;23.40;;;8.23;;
21593;SDS011;10959;51.328;7.322;2023-01-05T11:49:27;19.27;;;8.90;;
21593;SDS011;10959;51.328;7.322;2023-01-05T11:51:54;23.07;;;8.37;;
21593;SDS011;10959;51.328;7.322;2023-01-05T11:54:25;24.83;;;8.80;;
21593;SDS011;10959;51.328;7.322;2023-01-05T11:57:14;20.50;;;7.87;;
21593;SDS011;10959;51.328;7.322;2023-01-05T11:59:43;23.77;;;7.53;;
21593;SDS011;10959;51.328;7.322;2023-01-05T12:05:09;24.47;;;10.23;;
21593;SDS011;10959;51.328;7.322;2023-01-05T12:07:47;17.30;;;8.43;;
21593;SDS011;10959;51.328;7.322;2023-01-05T12:10:22;25.50;;;10.47;;
21593;SDS011;10959;51.328;7.322;2023-01-05T12:13:01;25.23;;;10.47;;
21593;SDS011;10959;51.328;7.322;2023-01-05T12:15:43;21.70;;;8.37;;
21593;SDS011;10959;51.328;7.322;2023-01-05T12:18:39;23.70;;;8.27;;
21593;SDS011;10959;51.328;7.322;2023-01-05T12:21:26;24.13;;;8.50;;
21593;SDS011;10959;51.328;7.322;2023-01-05T12:24:01;18.27;;;8.07;;
21593;SDS011;10959;51.328;7.322;2023-01-05T12:26:55;19.03;;;8.13;;
21593;SDS011;10959;51.328;7.322;2023-01-05T12:29:44;20.77;;;7.47;;
21593;SDS011;10959;51.328;7.322;2023-01-05T12:32:24;19.20;;;6.83;;
21593;SDS011;10959;51.328;7.322;2023-01-05T12:35:24;25.60;;;8.33;;
21593;SDS011;10959;51.328;7.322;2023-01-05T12:38:07;16.27;;;6.67;;
21593;SDS011;10959;51.328;7.322;2023-01-05T12:40:52;19.10;;;6.67;;
21593;SDS011;10959;51.328;7.322;2023-01-05T12:43:33;19.83;;;5.77;;
21593;SDS011;10959;51.328;7.322;2023-01-05T12:46:17;20.00;;;6.07;;
21593;SDS011;10959;51.328;7.322;2023-01-05T12:48:59;19.17;;;6.73;;
21593;SDS011;10959;51.328;7.322;2023-01-05T12:51:29;22.10;;;7.30;;
21593;SDS011;10959;51.328;7.322;2023-01-05T12:54:03;21.50;;;7.33;;
21593;SDS011;10959;51.328;7.322;2023-01-05T12:56:35;20.03;;;6.17;;
21593;SDS011;10959;51.328;7.322;2023-01-05T12:59:08;18.23;;;5.90;;
21593;SDS011;10959;51.328;7.322;2023-01-05T13:01:41;16.73;;;5.97;;
21593;SDS011;10959;51.328;7.322;2023-01-05T13:04:19;17.53;;;6.00;;
21593;SDS011;10959;51.328;7.322;2023-01-05T13:06:55;18.17;;;6.23;;
21593;SDS011;10959;51.328;7.322;2023-01-05T13:09:28;16.47;;;6.13;;
21593;SDS011;10959;51.328;7.322;2023-01-05T13:11:58;13.57;;;5.37;;
21593;SDS011;10959;51.328;7.322;2023-01-05T13:14:29;20.80;;;6.43;;
21593;SDS011;10959;51.328;7.322;2023-01-05T13:17:00;20.37;;;5.73;;
21593;SDS011;10959;51.328;7.322;2023-01-05T13:19:32;16.00;;;5.33;;
21593;SDS011;10959;51.328;7.322;2023-01-05T13:22:03;16.60;;;5.97;;
21593;SDS011;10959;51.328;7.322;2023-01-05T13:24:36;21.90;;;6.83;;
21593;SDS011;10959;51.328;7.322;2023-01-05T13:27:11;23.00;;;6.80;;
21593;SDS011;10959;51.328;7.322;2023-01-05T13:29:39;17.87;;;6.30;;
21593;SDS011;10959;51.328;7.322;2023-01-05T13:32:15;21.90;;;6.13;;
21593;SDS011;10959;51.328;7.322;2023-01-05T13:34:54;19.23;;;5.93;;
21593;SDS011;10959;51.328;7.322;2023-01-05T13:37:44;18.33;;;6.37;;
21593;SDS011;10959;51.328;7.322;2023-01-05T13:40:29;20.13;;;6.87;;
21593;SDS011;10959;51.328;7.322;2023-01-05T13:43:13;19.30;;;6.93;;
21593;SDS011;10959;51.328;7.322;2023-01-05T13:46:01;17.00;;;7.07;;
21593;SDS011;10959;51.328;7.322;2023-01-05T13:48:40;23.03;;;8.73;;
21593;SDS011;10959;51.328;7.322;2023-01-05T13:51:24;19.80;;;7.03;;
21593;SDS011;10959;51.328;7.322;2023-01-05T13:54:01;20.00;;;5.60;;
21593;SDS011;10959;51.328;7.322;2023-01-05T13:56:39;21.47;;;7.43;;
21593;SDS011;10959;51.328;7.322;2023-01-05T13:59:13;18.97;;;5.90;;
21593;SDS011;10959;51.328;7.322;2023-01-05T14:01:49;17.07;;;5.80;;
21593;SDS011;10959;51.328;7.322;2023-01-05T14:04:15;17.10;;;6.00;;
21593;SDS011;10959;51.328;7.322;2023-01-05T14:06:44;17.93;;;6.10;;
21593;SDS011;10959;51.328;7.322;2023-01-05T14:09:13;18.20;;;6.40;;
21593;SDS011;10959;51.328;7.322;2023-01-05T14:15:28;24.33;;;7.67;;
21593;SDS011;10959;51.328;7.322;2023-01-05T14:17:59;20.77;;;7.37;;
21593;SDS011;10959;51.328;7.322;2023-01-05T14:20:30;20.00;;;6.57;;
21593;SDS011;10959;51.328;7.322;2023-01-05T14:22:59;23.50;;;7.23;;
21593;SDS011;10959;51.328;7.322;2023-01-05T14:25:42;16.63;;;6.43;;
21593;SDS011;10959;51.328;7.322;2023-01-05T14:28:15;15.10;;;6.33;;
21593;SDS011;10959;51.328;7.322;2023-01-05T14:30:45;18.63;;;6.27;;
21593;SDS011;10959;51.328;7.322;2023-01-05T14:33:12;18.13;;;6.40;;
21593;SDS011;10959;51.328;7.322;2023-01-05T14:35:42;16.90;;;6.83;;
21593;SDS011;10959;51.328;7.322;2023-01-05T14:38:14;16.07;;;6.77;;
21593;SDS011;10959;51.328;7.322;2023-01-05T14:40:46;17.27;;;6.50;;
21593;SDS011;10959;51.328;7.322;2023-01-05T14:43:20;17.13;;;6.30;;
21593;SDS011;10959;51.328;7.322;2023-01-05T14:45:57;18.50;;;6.10;;
21593;SDS011;10959;51.328;7.322;2023-01-05T14:48:28;15.13;;;5.93;;
21593;SDS011;10959;51.328;7.322;2023-01-05T14:51:07;16.60;;;6.83;;
21593;SDS011;10959;51.328;7.322;2023-01-05T14:53:40;15.00;;;5.57;;
21593;SDS011;10959;51.328;7.322;2023-01-05T14:56:16;17.00;;;5.37;;
21593;SDS011;10959;51.328;7.322;2023-01-05T14:58:46;16.97;;;5.70;;
21593;SDS011;10959;51.328;7.322;2023-01-05T15:01:22;13.13;;;5.33;;
21593;SDS011;10959;51.328;7.322;2023-01-05T15:03:52;19.40;;;5.20;;
21593;SDS011;10959;51.328;7.322;2023-01-05T15:06:23;17.33;;;5.77;;
21593;SDS011;10959;51.328;7.322;2023-01-05T15:09:01;19.20;;;5.90;;
21593;SDS011;10959;51.328;7.322;2023-01-05T15:11:49;15.87;;;5.90;;